createdAt,value
2022-10-26T00:00:26.868Z,97185.69
2022-10-26T00:01:29.041Z,97169.69
2022-10-26T00:02:30.922Z,97179.06
2022-10-26T00:03:35.116Z,97177.25
2022-10-26T00:04:36.789Z,97173.19
2022-10-26T00:05:45.718Z,97177.94
2022-10-26T00:06:47.373Z,97182.97
2022-10-26T00:07:49.919Z,97181.50
2022-10-26T00:08:59.006Z,97184.03
2022-10-26T00:10:00.658Z,97176.59
2022-10-26T00:11:02.408Z,97188.06
2022-10-26T00:12:06.881Z,97181.97
2022-10-26T00:13:23.080Z,97183.03
2022-10-26T00:14:24.991Z,97181.66
2022-10-26T00:15:26.687Z,97182.13
2022-10-26T00:16:28.457Z,97178.78
2022-10-26T00:17:30.151Z,97175.75
2022-10-26T00:18:31.851Z,97179.41
2022-10-26T00:19:34.279Z,97193.47
2022-10-26T00:20:36.134Z,97186.63
2022-10-26T00:21:37.869Z,97177.66
2022-10-26T00:22:40.008Z,97192.09
2022-10-26T00:23:41.809Z,97182.31
2022-10-26T00:24:43.598Z,97177.78
2022-10-26T00:25:45.502Z,97181.09
2022-10-26T00:26:47.708Z,97182.88
2022-10-26T00:27:49.697Z,97188.09
2022-10-26T00:28:57.072Z,97183.94
2022-10-26T00:29:58.841Z,97187.94
2022-10-26T00:31:05.450Z,97184.56
2022-10-26T00:32:11.795Z,97189.69
2022-10-26T00:33:13.793Z,97189.06
2022-10-26T00:34:15.626Z,97192.78
2022-10-26T00:35:24.310Z,97183.28
2022-10-26T00:36:36.783Z,97192.25
2022-10-26T00:37:40.348Z,97192.69
2022-10-26T00:38:46.332Z,97192.25
2022-10-26T00:39:50.443Z,97197.19
2022-10-26T00:40:54.601Z,97194.75
2022-10-26T00:41:56.494Z,97191.97
2022-10-26T00:42:58.205Z,97195.69
2022-10-26T00:44:00.968Z,97190.56
2022-10-26T00:45:21.303Z,97187.41
2022-10-26T00:46:35.896Z,97199.53
2022-10-26T00:47:42.318Z,97187.41
2022-10-26T00:48:54.494Z,97187.16
2022-10-26T00:49:57.953Z,97195.03
2022-10-26T00:51:03.006Z,97203.31
2022-10-26T00:52:06.700Z,97192.50
2022-10-26T00:53:11.435Z,97187.81
2022-10-26T00:54:20.605Z,97181.59
2022-10-26T00:55:28.668Z,97188.88
2022-10-26T00:56:31.966Z,97184.25
2022-10-26T00:57:35.105Z,97195.03
2022-10-26T00:58:38.033Z,97182.44
2022-10-26T00:59:40.355Z,97189.56
2022-10-26T01:00:43.236Z,97196.28
2022-10-26T01:01:48.160Z,97187.84
2022-10-26T01:02:52.903Z,97197.25
2022-10-26T01:03:55.657Z,97197.25
2022-10-26T01:04:58.191Z,97180.75
2022-10-26T01:06:00.211Z,97188.38
2022-10-26T01:07:04.575Z,97188.44
2022-10-26T01:08:07.868Z,97176.91
2022-10-26T01:09:11.076Z,97192.00
2022-10-26T01:10:14.211Z,97190.88
2022-10-26T01:11:19.279Z,97183.34
2022-10-26T01:12:21.200Z,97189.94
2022-10-26T01:13:23.457Z,97193.88
2022-10-26T01:14:28.039Z,97195.00
2022-10-26T01:15:41.929Z,97190.81
2022-10-26T01:17:04.880Z,97196.13
2022-10-26T01:18:27.867Z,97196.91
2022-10-26T01:19:51.935Z,97196.31
2022-10-26T01:21:14.227Z,97203.88
2022-10-26T01:22:26.594Z,97203.28
2022-10-26T01:23:50.057Z,97193.16
2022-10-26T01:25:10.441Z,97200.66
2022-10-26T01:26:48.479Z,97201.94
2022-10-26T01:27:52.768Z,97203.16
2022-10-26T01:29:19.227Z,97198.00
2022-10-26T01:30:32.254Z,97203.38
2022-10-26T01:31:42.212Z,97206.31
2022-10-26T01:33:05.781Z,97203.25
2022-10-26T01:34:14.164Z,97203.59
2022-10-26T01:35:21.752Z,97201.78
2022-10-26T01:36:44.019Z,97194.94
2022-10-26T01:37:54.439Z,97196.53
2022-10-26T01:39:10.781Z,97199.78
2022-10-26T01:40:21.672Z,97199.78
2022-10-26T01:41:57.931Z,97206.75
2022-10-26T01:43:05.882Z,97201.81
2022-10-26T01:44:14.544Z,97201.34
2022-10-26T01:45:17.676Z,97195.63
2022-10-26T01:46:22.245Z,97200.78
2022-10-26T01:47:30.940Z,97199.13
2022-10-26T01:48:34.131Z,97203.38
2022-10-26T01:49:41.657Z,97202.03
2022-10-26T01:50:47.881Z,97195.31
2022-10-26T01:51:50.630Z,97205.63
2022-10-26T01:52:52.521Z,97195.06
2022-10-26T01:53:54.443Z,97196.41
2022-10-26T01:55:07.719Z,97198.84
2022-10-26T01:56:19.297Z,97191.00
2022-10-26T01:57:21.722Z,97197.50
2022-10-26T01:59:06.152Z,97190.78
2022-10-26T02:00:12.237Z,97196.41
2022-10-26T02:01:42.543Z,97195.50
2022-10-26T02:03:06.814Z,97191.47
2022-10-26T02:04:33.936Z,97192.25
2022-10-26T02:06:18.081Z,97193.06
2022-10-26T02:07:39.342Z,97195.59
2022-10-26T02:09:11.922Z,97202.19
2022-10-26T02:10:25.502Z,97201.03
2022-10-26T02:11:48.315Z,97203.66
2022-10-26T02:13:14.699Z,97206.13
2022-10-26T02:14:44.573Z,97196.22
2022-10-26T02:16:02.448Z,97200.94
2022-10-26T02:17:16.828Z,97198.22
2022-10-26T02:18:29.191Z,97207.91
2022-10-26T02:19:44.598Z,97198.66
2022-10-26T02:20:56.726Z,97201.34
2022-10-26T02:22:16.041Z,97192.38
2022-10-26T02:23:19.090Z,97201.84
2022-10-26T02:24:23.484Z,97200.06
2022-10-26T02:25:32.162Z,97203.97
2022-10-26T02:26:39.644Z,97202.28
2022-10-26T02:27:50.988Z,97200.94
2022-10-26T02:28:56.547Z,97206.31
2022-10-26T02:30:02.878Z,97204.03
2022-10-26T02:31:09.477Z,97195.53
2022-10-26T02:32:17.635Z,97198.22
2022-10-26T02:33:21.337Z,97197.78
2022-10-26T02:34:28.093Z,97197.09
2022-10-26T02:35:32.325Z,97211.38
2022-10-26T02:36:40.223Z,97206.31
2022-10-26T02:37:51.931Z,97203.97
2022-10-26T02:38:59.024Z,97200.69
2022-10-26T02:40:14.060Z,97201.88
2022-10-26T02:41:22.860Z,97204.25
2022-10-26T02:42:28.402Z,97205.81
2022-10-26T02:43:35.860Z,97212.00
2022-10-26T02:44:50.184Z,97206.69
2022-10-26T02:45:59.332Z,97201.31
2022-10-26T02:47:04.674Z,97209.44
2022-10-26T02:48:10.063Z,97206.34
2022-10-26T02:49:11.957Z,97201.66
2022-10-26T02:50:21.289Z,97207.31
2022-10-26T02:53:30.811Z,97210.63
2022-10-26T02:54:58.641Z,97218.56
2022-10-26T02:56:07.700Z,97211.16
2022-10-26T02:57:32.803Z,97208.38
2022-10-26T02:58:42.557Z,97214.66
2022-10-26T02:59:49.642Z,97208.81
2022-10-26T03:00:51.916Z,97205.44
2022-10-26T03:01:54.626Z,97214.66
2022-10-26T03:02:58.331Z,97214.19
2022-10-26T03:04:04.870Z,97217.59
2022-10-26T03:05:19.756Z,97217.38
2022-10-26T03:06:24.469Z,97218.25
2022-10-26T03:07:28.733Z,97212.13
2022-10-26T03:08:30.787Z,97213.56
2022-10-26T03:09:32.893Z,97209.75
2022-10-26T03:10:40.512Z,97210.66
2022-10-26T03:11:42.302Z,97211.03
2022-10-26T03:12:44.110Z,97215.63
2022-10-26T03:13:45.893Z,97220.88
2022-10-26T03:14:47.521Z,97217.06
2022-10-26T03:15:49.310Z,97221.50
2022-10-26T03:17:57.597Z,97216.91
2022-10-26T03:18:59.254Z,97218.34
2022-10-26T03:20:00.981Z,97220.63
2022-10-26T03:21:03.115Z,97223.31
2022-10-26T03:22:07.244Z,97218.59
2022-10-26T03:23:11.249Z,97221.66
2022-10-26T03:24:16.152Z,97217.47
2022-10-26T03:25:19.051Z,97220.06
2022-10-26T03:26:20.706Z,97222.84
2022-10-26T03:27:23.157Z,97222.63
2022-10-26T03:28:28.857Z,97225.47
2022-10-26T03:29:33.788Z,97224.91
2022-10-26T03:31:02.584Z,97236.34
2022-10-26T03:32:18.960Z,97225.81
2022-10-26T03:33:28.455Z,97233.66
2022-10-26T03:34:30.506Z,97230.28
2022-10-26T03:35:34.770Z,97230.28
2022-10-26T03:36:36.587Z,97234.09
2022-10-26T03:37:38.238Z,97235.78
2022-10-26T03:38:42.258Z,97228.16
2022-10-26T03:39:46.396Z,97227.06
2022-10-26T03:40:51.399Z,97235.13
2022-10-26T03:41:55.529Z,97228.06
2022-10-26T03:43:00.518Z,97235.91
2022-10-26T03:44:05.282Z,97234.91
2022-10-26T03:45:08.394Z,97242.63
2022-10-26T03:46:11.941Z,97240.28
2022-10-26T03:47:13.790Z,97237.25
2022-10-26T03:48:15.688Z,97239.47
2022-10-26T03:49:19.779Z,97242.06
2022-10-26T03:50:22.813Z,97250.34
2022-10-26T03:51:24.766Z,97248.88
2022-10-26T03:52:26.591Z,97245.94
2022-10-26T03:53:28.359Z,97252.63
2022-10-26T03:54:30.356Z,97242.28
2022-10-26T03:55:33.435Z,97245.94
2022-10-26T03:56:37.565Z,97242.94
2022-10-26T03:57:43.509Z,97249.88
2022-10-26T03:58:45.150Z,97248.84
2022-10-26T03:59:46.921Z,97244.66
2022-10-26T04:00:48.846Z,97240.59
2022-10-26T04:01:56.712Z,97237.00
2022-10-26T04:03:00.407Z,97244.94
2022-10-26T04:04:02.115Z,97241.75
2022-10-26T04:05:04.474Z,97240.59
2022-10-26T04:06:06.739Z,97245.00
2022-10-26T04:07:11.338Z,97241.41
2022-10-26T04:08:14.230Z,97242.56
2022-10-26T04:09:15.977Z,97241.19
2022-10-26T04:10:17.777Z,97253.69
2022-10-26T04:11:22.574Z,97241.72
2022-10-26T04:12:27.056Z,97242.97
2022-10-26T04:13:28.910Z,97245.44
2022-10-26T04:14:30.685Z,97252.03
2022-10-26T04:15:32.427Z,97249.47
2022-10-26T04:16:34.168Z,97250.03
2022-10-26T04:17:35.846Z,97244.44
2022-10-26T04:18:37.951Z,97245.75
2022-10-26T04:19:41.842Z,97251.34
2022-10-26T04:20:45.267Z,97254.31
2022-10-26T04:21:47.076Z,97247.03
2022-10-26T04:22:48.807Z,97259.59
2022-10-26T04:23:50.468Z,97252.78
2022-10-26T04:24:52.143Z,97257.06
2022-10-26T04:25:53.952Z,97254.59
2022-10-26T04:26:55.839Z,97250.59
2022-10-26T04:27:57.809Z,97252.75
2022-10-26T04:29:08.035Z,97252.84
2022-10-26T04:30:11.531Z,97247.63
2022-10-26T04:31:15.273Z,97259.38
2022-10-26T04:32:17.117Z,97255.69
2022-10-26T04:33:20.578Z,97250.44
2022-10-26T04:34:23.559Z,97248.78
2022-10-26T04:35:28.350Z,97256.31
2022-10-26T04:36:32.561Z,97247.09
2022-10-26T04:37:34.321Z,97257.31
2022-10-26T04:38:36.367Z,97255.06
2022-10-26T04:39:38.217Z,97262.13
2022-10-26T04:40:42.313Z,97253.38
2022-10-26T04:41:46.415Z,97249.34
2022-10-26T04:42:49.716Z,97264.16
2022-10-26T04:43:51.740Z,97248.03
2022-10-26T04:44:57.231Z,97256.56
2022-10-26T04:46:00.806Z,97269.78
2022-10-26T04:47:04.586Z,97262.16
2022-10-26T04:48:33.419Z,97262.59
2022-10-26T04:49:37.473Z,97264.84
2022-10-26T04:50:43.147Z,97269.09
2022-10-26T04:51:44.980Z,97265.28
2022-10-26T04:52:51.321Z,97265.72
2022-10-26T04:54:04.794Z,97269.34
2022-10-26T04:55:13.845Z,97266.19
2022-10-26T04:56:16.752Z,97276.28
2022-10-26T04:57:18.514Z,97279.69
2022-10-26T04:58:22.498Z,97277.41
2022-10-26T04:59:27.235Z,97285.97
2022-10-26T05:00:33.151Z,97291.44
2022-10-26T05:01:37.746Z,97282.25
2022-10-26T05:02:46.123Z,97284.94
2022-10-26T05:03:54.803Z,97279.22
2022-10-26T05:05:07.847Z,97294.69
2022-10-26T05:06:11.693Z,97291.44
2022-10-26T05:07:13.342Z,97280.34
2022-10-26T05:08:15.725Z,97292.09
2022-10-26T05:09:19.849Z,97287.97
2022-10-26T05:10:21.692Z,97292.66
2022-10-26T05:11:23.489Z,97283.38
2022-10-26T05:12:25.329Z,97289.31
2022-10-26T05:14:33.541Z,97289.50
2022-10-26T05:15:35.335Z,97286.47
2022-10-26T05:16:37.045Z,97296.72
2022-10-26T05:17:38.736Z,97301.44
2022-10-26T05:18:40.381Z,97296.19
2022-10-26T05:19:42.136Z,97299.28
2022-10-26T05:20:43.848Z,97296.94
2022-10-26T05:21:55.094Z,97304.59
2022-10-26T05:23:02.268Z,97300.41
2022-10-26T05:24:05.778Z,97298.28
2022-10-26T05:25:09.428Z,97293.13
2022-10-26T05:26:11.059Z,97309.19
2022-10-26T05:27:12.801Z,97299.97
2022-10-26T05:28:15.868Z,97296.28
2022-10-26T05:29:17.454Z,97296.72
2022-10-26T05:30:19.969Z,97300.97
2022-10-26T05:31:21.902Z,97299.84
2022-10-26T05:32:23.684Z,97307.25
2022-10-26T05:33:25.389Z,97300.75
2022-10-26T05:34:26.971Z,97300.50
2022-10-26T05:35:29.134Z,97312.78
2022-10-26T05:36:30.773Z,97305.03
2022-10-26T05:37:32.498Z,97307.47
2022-10-26T05:38:34.253Z,97308.38
2022-10-26T05:39:36.021Z,97309.94
2022-10-26T05:40:47.259Z,97321.84
2022-10-26T05:41:49.005Z,97312.63
2022-10-26T05:42:54.548Z,97319.13
2022-10-26T05:43:56.206Z,97315.56
2022-10-26T05:44:57.846Z,97311.63
2022-10-26T05:45:59.503Z,97324.84
2022-10-26T05:47:01.233Z,97321.84
2022-10-26T05:48:03.411Z,97315.09
2022-10-26T05:49:16.798Z,97318.91
2022-10-26T05:50:21.446Z,97323.41
2022-10-26T05:51:23.133Z,97321.84
2022-10-26T05:52:26.996Z,97320.06
2022-10-26T05:53:28.802Z,97328.81
2022-10-26T05:54:30.380Z,97328.94
2022-10-26T05:55:32.467Z,97327.22
2022-10-26T05:56:39.581Z,97329.47
2022-10-26T05:57:42.161Z,97340.13
2022-10-26T05:58:44.282Z,97339.69
2022-10-26T05:59:46.254Z,97330.25
2022-10-26T06:01:22.117Z,97337.66
2022-10-26T06:02:42.822Z,97348.22
2022-10-26T06:03:53.400Z,97350.34
2022-10-26T06:05:02.131Z,97342.16
2022-10-26T06:06:06.609Z,97355.06
2022-10-26T06:07:17.575Z,97345.16
2022-10-26T06:08:20.174Z,97353.16
2022-10-26T06:09:22.698Z,97355.59
2022-10-26T06:10:24.685Z,97343.34
2022-10-26T06:11:26.659Z,97347.59
2022-10-26T06:12:28.503Z,97346.22
2022-10-26T06:13:31.732Z,97345.75
2022-10-26T06:14:36.847Z,97348.41
2022-10-26T06:15:57.340Z,97356.56
2022-10-26T06:17:17.819Z,97358.88
2022-10-26T06:18:38.944Z,97359.94
2022-10-26T06:19:58.532Z,97366.47
2022-10-26T06:21:19.363Z,97354.28
2022-10-26T06:22:45.606Z,97359.44
2022-10-26T06:24:05.837Z,97362.34
2022-10-26T06:25:15.295Z,97364.25
2022-10-26T06:26:40.111Z,97359.06
2022-10-26T06:28:04.631Z,97358.59
2022-10-26T06:29:18.190Z,97365.13
2022-10-26T06:30:23.329Z,97366.53
2022-10-26T06:31:25.012Z,97373.59
2022-10-26T06:32:27.215Z,97370.72
2022-10-26T06:33:30.546Z,97362.75
2022-10-26T06:34:38.653Z,97363.13
2022-10-26T06:35:40.596Z,97367.13
2022-10-26T06:36:43.247Z,97366.53
2022-10-26T06:37:46.194Z,97364.78
2022-10-26T06:38:51.208Z,97369.50
2022-10-26T06:39:54.805Z,97367.03
2022-10-26T06:40:57.669Z,97364.09
2022-10-26T06:41:59.576Z,97371.16
2022-10-26T06:43:01.629Z,97364.53
2022-10-26T06:44:05.080Z,97372.00
2022-10-26T06:45:07.952Z,97367.03
2022-10-26T06:46:27.843Z,97370.16
2022-10-26T06:47:40.181Z,97370.31
2022-10-26T06:48:53.919Z,97361.81
2022-10-26T06:49:56.186Z,97374.50
2022-10-26T06:50:58.224Z,97370.22
2022-10-26T06:52:05.277Z,97370.94
2022-10-26T06:53:20.157Z,97377.19
2022-10-26T06:55:00.832Z,97374.84
2022-10-26T06:56:02.774Z,97376.91
2022-10-26T06:57:04.707Z,97381.81
2022-10-26T06:58:11.959Z,97376.63
2022-10-26T06:59:20.631Z,97374.44
2022-10-26T07:00:25.259Z,97374.63
2022-10-26T07:01:27.047Z,97371.50
2022-10-26T07:02:29.034Z,97372.78
2022-10-26T07:03:30.809Z,97374.06
2022-10-26T07:04:32.397Z,97379.34
2022-10-26T07:05:34.190Z,97375.34
2022-10-26T07:06:38.401Z,97369.88
2022-10-26T07:07:46.887Z,97379.16
2022-10-26T07:08:48.735Z,97380.44
2022-10-26T07:09:50.357Z,97372.88
2022-10-26T07:10:52.099Z,97379.88
2022-10-26T07:11:57.156Z,97376.50
2022-10-26T07:12:58.891Z,97379.69
2022-10-26T07:14:00.632Z,97377.91
2022-10-26T07:15:02.405Z,97378.81
2022-10-26T07:16:04.385Z,97372.03
2022-10-26T07:17:06.382Z,97368.81
2022-10-26T07:18:08.595Z,97368.38
2022-10-26T07:19:10.271Z,97372.53
2022-10-26T07:20:13.110Z,97374.28
2022-10-26T07:21:17.308Z,97372.13
2022-10-26T07:22:19.275Z,97372.34
2022-10-26T07:23:24.473Z,97366.31
2022-10-26T07:24:26.418Z,97367.94
2022-10-26T07:25:28.437Z,97369.38
2022-10-26T07:26:30.038Z,97366.06
2022-10-26T07:27:31.590Z,97367.00
2022-10-26T07:28:33.529Z,97364.47
2022-10-26T07:29:35.548Z,97361.56
2022-10-26T07:30:38.386Z,97361.56
2022-10-26T07:31:40.084Z,97354.75
2022-10-26T07:32:42.313Z,97355.03
2022-10-26T07:33:45.344Z,97357.56
2022-10-26T07:34:46.951Z,97367.72
2022-10-26T07:35:48.637Z,97357.69
2022-10-26T07:36:51.630Z,97362.25
2022-10-26T07:37:57.107Z,97357.28
2022-10-26T07:38:58.671Z,97356.38
2022-10-26T07:40:05.532Z,97362.94
2022-10-26T07:41:08.562Z,97361.91
2022-10-26T07:42:10.207Z,97361.44
2022-10-26T07:43:11.866Z,97368.09
2022-10-26T07:44:13.570Z,97353.41
2022-10-26T07:45:15.239Z,97355.56
2022-10-26T07:46:17.899Z,97355.72
2022-10-26T07:47:19.475Z,97356.19
2022-10-26T07:48:21.608Z,97358.66
2022-10-26T07:49:46.900Z,97358.28
2022-10-26T07:50:49.237Z,97354.03
2022-10-26T07:51:51.704Z,97357.16
2022-10-26T07:52:53.808Z,97347.44
2022-10-26T07:53:56.820Z,97351.22
2022-10-26T07:55:29.897Z,97348.13
2022-10-26T07:56:32.090Z,97354.09
2022-10-26T07:57:34.704Z,97349.91
2022-10-26T07:58:36.660Z,97354.75
2022-10-26T07:59:38.592Z,97353.38
2022-10-26T08:00:48.886Z,97351.38
2022-10-26T08:01:57.789Z,97344.41
2022-10-26T08:02:59.666Z,97351.81
2022-10-26T08:04:23.817Z,97348.44
2022-10-26T08:05:26.072Z,97351.78
2022-10-26T08:06:38.171Z,97350.25
2022-10-26T08:07:44.364Z,97350.28
2022-10-26T08:08:59.103Z,97348.00
2022-10-26T08:10:02.821Z,97346.34
2022-10-26T08:11:06.045Z,97345.78
2022-10-26T08:12:19.618Z,97352.50
2022-10-26T08:13:21.741Z,97349.88
2022-10-26T08:14:23.607Z,97347.63
2022-10-26T08:15:25.263Z,97350.78
2022-10-26T08:16:27.125Z,97352.31
2022-10-26T08:17:34.738Z,97351.03
2022-10-26T08:18:41.316Z,97347.66
2022-10-26T08:19:45.906Z,97352.50
2022-10-26T08:20:50.548Z,97343.28
2022-10-26T08:21:52.358Z,97344.94
2022-10-26T08:22:57.056Z,97346.44
2022-10-26T08:23:58.776Z,97349.59
2022-10-26T08:25:00.436Z,97342.63
2022-10-26T08:26:02.934Z,97350.38
2022-10-26T08:27:04.622Z,97340.97
2022-10-26T08:28:06.235Z,97337.06
2022-10-26T08:29:08.110Z,97340.19
2022-10-26T08:30:10.068Z,97337.44
2022-10-26T08:31:13.920Z,97337.91
2022-10-26T08:32:15.560Z,97326.69
2022-10-26T08:33:17.351Z,97338.72
2022-10-26T08:34:18.956Z,97334.09
2022-10-26T08:35:23.784Z,97338.09
2022-10-26T08:36:27.500Z,97329.56
2022-10-26T08:37:30.771Z,97337.38
2022-10-26T08:38:34.153Z,97334.25
2022-10-26T08:39:38.536Z,97333.88
2022-10-26T08:40:44.921Z,97328.91
2022-10-26T08:41:53.449Z,97328.94
2022-10-26T08:43:24.957Z,97327.28
2022-10-26T08:45:01.261Z,97318.50
2022-10-26T08:46:42.407Z,97327.91
2022-10-26T08:47:48.827Z,97328.00
2022-10-26T08:49:02.702Z,97324.81
2022-10-26T08:50:14.982Z,97323.34
2022-10-26T08:51:39.982Z,97331.69
2022-10-26T08:52:49.799Z,97331.72
2022-10-26T08:54:02.426Z,97326.69
2022-10-26T08:55:04.907Z,97327.13
2022-10-26T08:56:14.015Z,97326.72
2022-10-26T08:57:33.257Z,97331.38
2022-10-26T08:58:41.580Z,97328.19
2022-10-26T08:59:54.772Z,97324.28
2022-10-26T09:00:56.691Z,97323.13
2022-10-26T09:01:58.423Z,97323.53
2022-10-26T09:03:00.049Z,97326.66
2022-10-26T09:04:03.279Z,97324.34
2022-10-26T09:05:16.096Z,97325.94
2022-10-26T09:06:17.958Z,97320.50
2022-10-26T09:07:28.318Z,97325.94
2022-10-26T09:09:14.915Z,97326.63
2022-10-26T09:10:44.830Z,97317.31
2022-10-26T09:11:52.916Z,97320.41
2022-10-26T09:13:20.710Z,97321.63
2022-10-26T09:14:47.943Z,97317.38
2022-10-26T09:16:26.376Z,97319.72
2022-10-26T09:18:06.971Z,97315.09
2022-10-26T09:19:14.206Z,97315.06
2022-10-26T09:20:31.144Z,97308.41
2022-10-26T09:21:54.303Z,97311.94
2022-10-26T09:23:34.146Z,97311.97
2022-10-26T09:24:42.566Z,97311.97
2022-10-26T09:25:49.328Z,97310.41
2022-10-26T09:26:55.221Z,97307.28
2022-10-26T09:28:02.679Z,97310.78
2022-10-26T09:29:07.585Z,97305.34
2022-10-26T09:30:19.212Z,97307.66
2022-10-26T09:31:22.374Z,97306.06
2022-10-26T09:32:31.418Z,97308.38
2022-10-26T09:33:42.329Z,97306.81
2022-10-26T09:34:53.465Z,97306.81
2022-10-26T09:36:04.902Z,97304.06
2022-10-26T09:37:18.305Z,97304.03
2022-10-26T09:39:01.436Z,97302.09
2022-10-26T09:40:31.637Z,97298.56
2022-10-26T09:41:57.669Z,97301.25
2022-10-26T09:43:05.731Z,97307.03
2022-10-26T09:44:22.470Z,97299.94
2022-10-26T09:45:37.922Z,97301.56
2022-10-26T09:47:16.228Z,97295.41
2022-10-26T09:48:33.608Z,97287.22
2022-10-26T09:49:48.879Z,97289.94
2022-10-26T09:50:54.955Z,97297.63
2022-10-26T09:51:56.889Z,97285.09
2022-10-26T09:52:58.475Z,97287.78
2022-10-26T09:54:02.054Z,97296.72
2022-10-26T09:55:03.710Z,97279.56
2022-10-26T09:56:15.993Z,97282.25
2022-10-26T09:57:22.966Z,97281.06
2022-10-26T09:58:28.811Z,97283.44
2022-10-26T09:59:34.242Z,97285.78
2022-10-26T10:00:37.859Z,97278.03
2022-10-26T10:01:41.541Z,97281.16
2022-10-26T10:02:53.564Z,97276.41
2022-10-26T10:04:13.797Z,97264.66
2022-10-26T10:05:50.883Z,97267.00
2022-10-26T10:07:13.785Z,97260.47
2022-10-26T10:08:26.304Z,97261.66
2022-10-26T10:09:27.922Z,97266.75
2022-10-26T10:10:29.742Z,97254.66
2022-10-26T10:11:43.543Z,97249.16
2022-10-26T10:12:46.736Z,97251.50
2022-10-26T10:13:48.952Z,97249.09
2022-10-26T10:15:00.564Z,97247.56
2022-10-26T10:16:21.998Z,97250.75
2022-10-26T10:17:24.301Z,97245.34
2022-10-26T10:18:28.764Z,97249.25
2022-10-26T10:19:33.260Z,97241.41
2022-10-26T10:20:34.974Z,97248.34
2022-10-26T10:21:54.922Z,97250.72
2022-10-26T10:22:59.460Z,97244.81
2022-10-26T10:24:01.046Z,97243.34
2022-10-26T10:25:04.296Z,97241.81
2022-10-26T10:26:21.155Z,97245.25
2022-10-26T10:27:24.088Z,97237.38
2022-10-26T10:28:27.533Z,97238.88
2022-10-26T10:29:33.923Z,97239.66
2022-10-26T10:30:35.807Z,97233.41
2022-10-26T10:31:37.498Z,97228.38
2022-10-26T10:32:41.354Z,97227.56
2022-10-26T10:33:45.534Z,97235.84
2022-10-26T10:34:51.563Z,97233.50
2022-10-26T10:35:53.509Z,97233.53
2022-10-26T10:36:57.003Z,97231.97
2022-10-26T10:37:58.745Z,97228.06
2022-10-26T10:39:01.096Z,97220.63
2022-10-26T10:40:09.434Z,97231.22
2022-10-26T10:41:31.250Z,97224.56
2022-10-26T10:42:36.490Z,97225.75
2022-10-26T10:43:45.012Z,97217.16
2022-10-26T10:44:50.725Z,97214.06
2022-10-26T10:45:59.531Z,97210.13
2022-10-26T10:47:06.656Z,97213.22
2022-10-26T10:48:20.584Z,97213.91
2022-10-26T10:49:28.463Z,97202.25
2022-10-26T10:50:30.865Z,97203.38
2022-10-26T10:51:42.253Z,97204.50
2022-10-26T10:52:47.361Z,97193.56
2022-10-26T10:53:53.862Z,97200.16
2022-10-26T10:55:22.504Z,97196.66
2022-10-26T10:56:53.253Z,97197.72
2022-10-26T10:58:21.463Z,97196.47
2022-10-26T10:59:29.320Z,97191.81
2022-10-26T11:00:36.557Z,97188.78
2022-10-26T11:01:40.994Z,97186.78
2022-10-26T11:03:10.498Z,97183.28
2022-10-26T11:04:45.835Z,97176.59
2022-10-26T11:06:13.759Z,97181.56
2022-10-26T11:07:17.565Z,97181.63
2022-10-26T11:08:50.864Z,97178.16
2022-10-26T11:11:27.906Z,97170.03
2022-10-26T11:12:38.637Z,97177.38
2022-10-26T11:13:49.143Z,97172.69
2022-10-26T11:15:22.533Z,97172.97
2022-10-26T11:16:36.175Z,97180.38
2022-10-26T11:18:04.175Z,97172.75
2022-10-26T11:19:26.803Z,97164.56
2022-10-26T11:20:29.985Z,97167.63
2022-10-26T11:21:36.950Z,97166.56
2022-10-26T11:22:59.538Z,97158.84
2022-10-26T11:24:07.237Z,97172.28
2022-10-26T11:25:24.382Z,97172.28
2022-10-26T11:26:42.343Z,97172.97
2022-10-26T11:27:52.183Z,97165.94
2022-10-26T11:29:07.330Z,97165.81
2022-10-26T11:30:20.222Z,97160.66
2022-10-26T11:31:28.421Z,97167.97
2022-10-26T11:32:37.524Z,97163.56
2022-10-26T11:34:24.123Z,97156.13
2022-10-26T11:35:31.580Z,97157.25
2022-10-26T11:36:35.347Z,97149.84
2022-10-26T11:37:50.154Z,97148.66
2022-10-26T11:39:20.544Z,97148.16
2022-10-26T11:40:48.388Z,97152.91
2022-10-26T11:42:10.645Z,97149.50
2022-10-26T11:43:24.517Z,97154.63
2022-10-26T11:44:37.984Z,97148.28
2022-10-26T11:45:44.360Z,97152.94
2022-10-26T11:47:13.640Z,97150.63
2022-10-26T11:48:22.185Z,97147.44
2022-10-26T11:49:33.856Z,97143.59
2022-10-26T11:50:43.457Z,97142.81
2022-10-26T11:52:20.756Z,97140.25
2022-10-26T11:53:28.748Z,97141.81
2022-10-26T11:54:34.898Z,97135.97
2022-10-26T11:55:38.121Z,97132.34
2022-10-26T11:56:46.489Z,97128.84
2022-10-26T11:57:50.516Z,97130.06
2022-10-26T11:58:53.262Z,97132.34
2022-10-26T11:59:59.806Z,97124.59
2022-10-26T12:01:04.877Z,97123.03
2022-10-26T12:02:23.571Z,97127.63
2022-10-26T12:03:35.420Z,97121.91
2022-10-26T12:04:39.059Z,97120.34
2022-10-26T12:05:40.603Z,97124.13
2022-10-26T12:06:43.288Z,97118.63
2022-10-26T12:07:50.093Z,97115.44
2022-10-26T12:09:06.176Z,97120.91
2022-10-26T12:10:23.760Z,97109.84
2022-10-26T12:11:35.764Z,97106.88
2022-10-26T12:13:10.008Z,97108.84
2022-10-26T12:14:38.865Z,97101.13
2022-10-26T12:16:03.118Z,97109.72
2022-10-26T12:17:28.728Z,97109.72
2022-10-26T12:19:02.354Z,97111.38
2022-10-26T12:20:13.429Z,97104.34
2022-10-26T12:21:15.746Z,97105.97
2022-10-26T12:22:20.141Z,97098.91
2022-10-26T12:23:40.298Z,97098.88
2022-10-26T12:25:14.805Z,97098.53
2022-10-26T12:26:26.049Z,97093.75
2022-10-26T12:27:39.901Z,97105.56
2022-10-26T12:28:43.189Z,97105.56
2022-10-26T12:29:49.394Z,97090.72
2022-10-26T12:30:51.077Z,97102.13
2022-10-26T12:31:52.860Z,97107.06
2022-10-26T12:33:04.009Z,97106.66
2022-10-26T12:34:23.362Z,97094.94
2022-10-26T12:35:37.292Z,97103.19
2022-10-26T12:36:48.457Z,97099.91
2022-10-26T12:37:50.587Z,97096.09
2022-10-26T12:38:57.382Z,97095.22
2022-10-26T12:40:33.305Z,97103.91
2022-10-26T12:41:39.382Z,97099.75
2022-10-26T12:42:41.728Z,97092.34
2022-10-26T12:43:46.810Z,97101.31
2022-10-26T12:44:48.642Z,97102.78
2022-10-26T12:46:15.328Z,97095.56
2022-10-26T12:47:29.131Z,97107.34
2022-10-26T12:48:43.915Z,97103.72
2022-10-26T12:50:01.463Z,97098.78
2022-10-26T12:51:22.397Z,97095.66
2022-10-26T12:52:30.854Z,97109.06
2022-10-26T12:53:33.491Z,97098.91
2022-10-26T12:54:51.447Z,97098.06
2022-10-26T12:56:05.228Z,97096.56
2022-10-26T12:57:26.582Z,97098.56
2022-10-26T12:59:08.080Z,97098.28
2022-10-26T13:00:22.260Z,97103.84
2022-10-26T13:01:46.009Z,97099.63
2022-10-26T13:02:50.512Z,97106.13
2022-10-26T13:04:11.841Z,97103.69
2022-10-26T13:05:30.907Z,97097.47
2022-10-26T13:06:41.473Z,97102.19
2022-10-26T13:07:43.390Z,97095.16
2022-10-26T13:08:58.841Z,97099.16
2022-10-26T13:10:26.029Z,97109.41
2022-10-26T13:11:35.058Z,97095.81
2022-10-26T13:12:51.249Z,97093.41
2022-10-26T13:14:01.402Z,97091.84
2022-10-26T13:15:08.423Z,97094.25
2022-10-26T13:16:12.726Z,97088.06
2022-10-26T13:18:44.026Z,97096.88
2022-10-26T13:19:48.735Z,97102.59
2022-10-26T13:20:53.088Z,97102.59
2022-10-26T13:21:59.245Z,97097.13
2022-10-26T13:23:03.086Z,97100.75
2022-10-26T13:24:09.864Z,97106.53
2022-10-26T13:25:21.624Z,97101.94
2022-10-26T13:26:25.417Z,97102.06
2022-10-26T13:28:27.749Z,97099.59
2022-10-26T13:29:30.799Z,97095.84
2022-10-26T13:31:04.154Z,97102.06
2022-10-26T13:32:06.049Z,97105.06
2022-10-26T13:33:18.067Z,97103.50
2022-10-26T13:34:24.003Z,97102.22